메인 페이지
METAR-TAF:

METAR-TAF

공항 :

극북의 땅, 그린란드

위도: 76-32N, 경도: 068-42W, 고도: 77m

현재 날씨관측

예보는 15분 전, 04:56시(UTC)에 발표되었습니다.
동남동6kt
온도 -26°C
습도 69%
기압 988 hPa
시정 10km 이상
맑음

METAR: BGTL 260456Z AUTO 12006KT 9999 CLR M26/M30 A2918 RMK AO2 SLP873 T12621303 TSNO $

시각: 02:11 (05:11 UTC)

예보

예보는 12 시간 11분 전, 17:00시(UTC)에 발표되었습니다.
예보 대상 시간: 25일 17시부터 26일 23시까지 (UTC)
9kt동북동풍과 풍을 오가는
시정 10km 이상
맑음
전환 중
26일 11시부터 26일 12시까지 (UTC)
9kt
시정: 2611m
고도 7000ft 상공 구름 보통

TAF: BGTL 251700Z 2517/2623 10009KT 9999 SKC QNH2904INS WND 070V170 BECMG 2611/2612 10009KT 9999 SCT070 QNH2925INS TXM18/2518Z TNM32/2607Z LAST NO AMDS AFT 2519 NEXT 2611

4,000개 이상의 공항 관측 자료 및 예보 (METAR 및 TAF 보고).

지도상에서 검색 가능한 기상관측소가 노란 점과 빨간 점으로 표시되어 있습니다.

기상관측소 명을 보려면 표시 위로 마우스를 이동하세요.

날씨 관측과 예보를 보려면 클릭하세요.

지도 변경 : 확대하려면 엑스 표시가 있는 녹색 버튼, 축소하려면 빼기 표시가 있는 녹색 버튼, 다음 페이지의 지도를 보려면 녹색 화살표를 클릭하세요.


METAR-TAF: